createdAt,value
2023-02-14T00:01:30.731Z,9.55
2023-02-14T00:04:00.756Z,10.77
2023-02-14T00:06:28.485Z,7.97
2023-02-14T00:08:55.673Z,8.35
2023-02-14T00:11:22.894Z,6.32
2023-02-14T00:14:08.831Z,7.50
2023-02-14T00:16:36.006Z,7.28
2023-02-14T00:19:03.322Z,7.32
2023-02-14T00:21:39.015Z,7.25
2023-02-14T00:26:38.758Z,7.38
2023-02-14T00:29:08.068Z,5.85
2023-02-14T00:31:35.845Z,7.35
2023-02-14T00:34:07.390Z,8.35
2023-02-14T00:36:35.833Z,7.82
2023-02-14T00:39:09.406Z,7.53
2023-02-14T00:41:37.170Z,7.28
2023-02-14T00:44:04.824Z,8.10
2023-02-14T00:46:32.394Z,6.95
2023-02-14T00:48:59.753Z,7.25
2023-02-14T00:51:27.002Z,9.50
2023-02-14T00:53:54.233Z,8.60
2023-02-14T00:56:21.586Z,7.43
2023-02-14T00:58:49.206Z,8.32
2023-02-14T01:01:20.790Z,8.85
2023-02-14T01:03:48.637Z,7.45
2023-02-14T01:06:19.649Z,6.88
2023-02-14T01:08:52.668Z,9.77
2023-02-14T01:11:22.872Z,7.72
2023-02-14T01:13:51.424Z,6.43
2023-02-14T01:16:22.115Z,8.30
2023-02-14T01:18:50.644Z,7.55
2023-02-14T01:21:27.770Z,9.15
2023-02-14T01:23:58.386Z,7.82
2023-02-14T01:26:27.475Z,9.75
2023-02-14T01:28:55.620Z,8.65
2023-02-14T01:31:28.077Z,8.63
2023-02-14T01:33:56.224Z,7.10
2023-02-14T01:36:44.829Z,8.85
2023-02-14T01:39:14.863Z,11.30
2023-02-14T01:41:44.289Z,10.88
2023-02-14T01:44:14.225Z,10.25
2023-02-14T01:46:43.949Z,9.73
2023-02-14T01:49:20.517Z,10.63
2023-02-14T01:52:04.358Z,10.02
2023-02-14T01:54:35.500Z,8.82
2023-02-14T01:57:08.780Z,11.63
2023-02-14T01:59:47.644Z,9.15
2023-02-14T02:02:14.900Z,9.60
2023-02-14T02:04:46.264Z,13.25
2023-02-14T02:07:21.077Z,10.30
2023-02-14T02:09:57.285Z,10.73
2023-02-14T02:12:30.823Z,11.18
2023-02-14T02:15:00.135Z,9.00
2023-02-14T02:17:41.582Z,10.82
2023-02-14T02:20:38.890Z,10.65
2023-02-14T02:23:37.112Z,12.25
2023-02-14T02:26:13.099Z,14.18
2023-02-14T02:28:46.227Z,10.70
2023-02-14T02:31:31.235Z,12.02
2023-02-14T02:34:22.913Z,11.30
2023-02-14T02:37:22.802Z,11.50
2023-02-14T02:40:21.180Z,11.18
2023-02-14T02:43:31.042Z,14.52
2023-02-14T02:46:38.644Z,12.07
2023-02-14T02:49:55.331Z,14.32
2023-02-14T02:52:58.934Z,14.27
2023-02-14T02:56:00.197Z,13.27
2023-02-14T02:58:57.390Z,12.98
2023-02-14T03:01:32.673Z,12.35
2023-02-14T03:04:29.785Z,13.52
2023-02-14T03:06:58.798Z,14.43
2023-02-14T03:09:29.094Z,12.27
2023-02-14T03:12:17.615Z,12.95
2023-02-14T03:15:00.023Z,10.77
2023-02-14T03:17:41.270Z,12.70
2023-02-14T03:20:24.609Z,12.77
2023-02-14T03:23:39.706Z,14.30
2023-02-14T03:26:37.849Z,10.82
2023-02-14T03:29:32.047Z,14.43
2023-02-14T03:32:30.987Z,12.38
2023-02-14T03:35:22.770Z,15.85
2023-02-14T03:38:37.204Z,12.25
2023-02-14T03:41:11.754Z,12.68
2023-02-14T03:43:49.460Z,14.57
2023-02-14T03:46:40.344Z,11.63
2023-02-14T03:49:15.371Z,17.00
2023-02-14T03:51:48.644Z,14.43
2023-02-14T03:54:17.871Z,15.85
2023-02-14T03:56:52.820Z,15.52
2023-02-14T03:59:26.339Z,18.30
2023-02-14T04:02:14.828Z,19.67
2023-02-14T04:04:49.181Z,15.60
2023-02-14T04:07:23.252Z,15.00
2023-02-14T04:09:53.345Z,18.52
2023-02-14T04:12:29.399Z,17.60
2023-02-14T04:15:03.960Z,16.65
2023-02-14T04:17:49.937Z,20.65
2023-02-14T04:20:17.300Z,17.20
2023-02-14T04:22:46.391Z,18.40
2023-02-14T04:25:14.280Z,17.35
2023-02-14T04:27:41.483Z,16.48
2023-02-14T04:30:10.097Z,15.20
2023-02-14T04:32:37.284Z,15.35
2023-02-14T04:35:04.958Z,17.45
2023-02-14T04:37:32.067Z,15.02
2023-02-14T04:40:02.611Z,17.88
2023-02-14T04:42:32.916Z,19.33
2023-02-14T04:45:01.422Z,17.08
2023-02-14T04:47:30.399Z,20.30
2023-02-14T04:49:57.831Z,23.50
2023-02-14T04:52:25.055Z,20.80
2023-02-14T04:54:55.656Z,19.42
2023-02-14T04:57:22.930Z,22.60
2023-02-14T04:59:50.259Z,22.30
2023-02-14T05:02:17.566Z,20.55
2023-02-14T05:04:44.770Z,23.23
2023-02-14T05:07:12.087Z,26.00
2023-02-14T05:09:39.403Z,23.00
2023-02-14T05:12:06.874Z,24.48
2023-02-14T05:14:34.154Z,23.65
2023-02-14T05:17:04.926Z,26.83
2023-02-14T05:19:32.060Z,20.65
2023-02-14T05:21:59.241Z,25.45
2023-02-14T05:24:26.418Z,26.63
2023-02-14T05:26:53.759Z,25.75
2023-02-14T05:29:21.222Z,22.25
2023-02-14T05:31:49.689Z,24.70
2023-02-14T05:34:21.686Z,28.85
2023-02-14T05:36:48.984Z,23.73
2023-02-14T05:39:16.191Z,23.90
2023-02-14T05:41:43.442Z,21.98
2023-02-14T05:44:10.646Z,25.48
2023-02-14T05:46:41.322Z,26.93
2023-02-14T05:49:08.703Z,26.83
2023-02-14T05:51:36.016Z,23.80
2023-02-14T05:54:03.269Z,24.83
2023-02-14T05:56:33.864Z,24.73
2023-02-14T05:59:01.251Z,29.45
2023-02-14T06:01:28.372Z,26.98
2023-02-14T06:03:55.480Z,25.00
2023-02-14T06:06:22.688Z,29.10
2023-02-14T06:08:50.017Z,25.65
2023-02-14T06:11:17.365Z,23.80
2023-02-14T06:13:44.632Z,25.98
2023-02-14T06:16:14.986Z,25.58
2023-02-14T06:18:42.808Z,27.52
2023-02-14T06:21:13.428Z,34.15
2023-02-14T06:23:40.701Z,22.98
2023-02-14T06:26:11.185Z,26.47
2023-02-14T06:28:38.514Z,30.65
2023-02-14T06:31:05.849Z,23.52
2023-02-14T06:33:33.106Z,25.13
2023-02-14T06:36:00.223Z,24.95
2023-02-14T06:38:27.299Z,25.02
2023-02-14T06:40:54.622Z,23.48
2023-02-14T06:43:21.881Z,23.90
2023-02-14T06:45:49.261Z,25.13
2023-02-14T06:48:16.495Z,23.02
2023-02-14T06:50:43.636Z,24.83
2023-02-14T06:53:11.548Z,16.90
2023-02-14T06:55:43.763Z,22.67
2023-02-14T06:58:11.284Z,18.67
2023-02-14T07:00:39.770Z,17.40
2023-02-14T07:03:08.327Z,16.80
2023-02-14T07:05:35.844Z,17.17
2023-02-14T07:08:03.342Z,16.60
2023-02-14T07:10:30.541Z,18.20
2023-02-14T07:13:04.386Z,15.48
2023-02-14T07:15:35.405Z,18.60
2023-02-14T07:18:03.362Z,16.07
2023-02-14T07:20:30.690Z,20.27
2023-02-14T07:22:57.790Z,16.67
2023-02-14T07:25:25.018Z,19.98
2023-02-14T07:27:52.145Z,19.42
2023-02-14T07:30:19.526Z,25.90
2023-02-14T07:32:46.964Z,19.63
2023-02-14T07:35:15.290Z,18.13
2023-02-14T07:37:42.638Z,18.63
2023-02-14T07:40:14.842Z,19.17
2023-02-14T07:42:43.820Z,21.95
2023-02-14T07:45:21.165Z,20.02
2023-02-14T07:47:51.219Z,26.73
2023-02-14T07:50:19.476Z,17.30
2023-02-14T07:52:46.788Z,23.27
2023-02-14T07:55:14.574Z,22.92
2023-02-14T07:57:41.759Z,19.30
2023-02-14T08:00:12.291Z,17.77
2023-02-14T08:02:40.507Z,24.17
2023-02-14T08:05:08.026Z,21.42
2023-02-14T08:07:35.672Z,23.95
2023-02-14T08:10:02.850Z,21.48
2023-02-14T08:12:48.696Z,21.13
2023-02-14T08:15:34.354Z,20.75
2023-02-14T08:18:01.523Z,22.95
2023-02-14T08:20:28.634Z,24.58
2023-02-14T08:22:56.589Z,21.55
2023-02-14T08:25:26.399Z,23.27
2023-02-14T08:27:56.586Z,27.65
2023-02-14T08:30:24.700Z,23.02
2023-02-14T08:32:54.823Z,23.30
2023-02-14T08:35:22.600Z,29.42
2023-02-14T08:37:50.836Z,24.67
2023-02-14T08:40:18.204Z,25.33
2023-02-14T08:42:49.036Z,32.15
2023-02-14T08:45:19.862Z,24.17
2023-02-14T08:47:47.681Z,37.25
2023-02-14T08:50:18.312Z,26.63
2023-02-14T08:52:45.588Z,29.40
2023-02-14T08:55:14.352Z,31.23
2023-02-14T08:57:41.742Z,27.27
2023-02-14T09:00:09.956Z,33.75
2023-02-14T09:02:37.346Z,27.92
2023-02-14T09:05:06.207Z,26.52
2023-02-14T09:07:33.729Z,28.85
2023-02-14T09:10:01.093Z,29.20
2023-02-14T09:12:31.839Z,28.35
2023-02-14T09:14:59.063Z,29.52
2023-02-14T09:17:26.371Z,27.73
2023-02-14T09:19:53.455Z,26.30
2023-02-14T09:22:21.107Z,25.83
2023-02-14T09:24:48.331Z,28.38
2023-02-14T09:27:15.599Z,27.02
2023-02-14T09:29:42.916Z,26.38
2023-02-14T09:32:13.417Z,23.95
2023-02-14T09:34:40.689Z,33.85
2023-02-14T09:37:29.692Z,28.00
2023-02-14T09:39:56.930Z,30.75
2023-02-14T09:43:34.153Z,26.63
2023-02-14T09:46:03.083Z,32.17
2023-02-14T09:48:38.019Z,30.20
2023-02-14T09:51:21.095Z,26.58
2023-02-14T09:54:01.716Z,30.33
2023-02-14T09:56:54.096Z,28.70
2023-02-14T09:59:38.846Z,33.13
2023-02-14T10:02:34.013Z,29.65
2023-02-14T10:05:23.906Z,29.55
2023-02-14T10:08:16.471Z,28.30
2023-02-14T10:10:49.082Z,28.00
2023-02-14T10:13:53.568Z,31.98
2023-02-14T10:16:46.935Z,33.92
2023-02-14T10:19:19.805Z,30.05
2023-02-14T10:22:02.352Z,28.45
2023-02-14T10:24:54.432Z,30.70
2023-02-14T10:27:30.165Z,29.45
2023-02-14T10:29:57.774Z,35.15
2023-02-14T10:33:07.485Z,33.95
2023-02-14T10:35:52.492Z,27.48
2023-02-14T10:38:42.628Z,32.45
2023-02-14T10:41:24.835Z,33.35
2023-02-14T10:44:22.736Z,33.60
2023-02-14T10:47:12.243Z,35.83
2023-02-14T10:49:59.348Z,30.60
2023-02-14T10:52:50.893Z,33.13
2023-02-14T10:55:32.428Z,30.88
2023-02-14T10:58:06.494Z,30.05
2023-02-14T11:00:39.722Z,34.50
2023-02-14T11:03:10.829Z,28.75
2023-02-14T11:05:49.577Z,32.55
2023-02-14T11:08:27.542Z,30.80
2023-02-14T11:11:17.180Z,32.17
2023-02-14T11:13:45.468Z,31.90
2023-02-14T11:16:36.964Z,35.33
2023-02-14T11:19:20.064Z,33.33
2023-02-14T11:21:50.691Z,32.55
2023-02-14T11:24:31.680Z,29.65
2023-02-14T11:27:18.860Z,33.97
2023-02-14T11:29:53.090Z,35.90
2023-02-14T11:32:30.439Z,29.48
2023-02-14T11:35:34.666Z,34.20
2023-02-14T11:38:07.016Z,26.80
2023-02-14T11:40:38.002Z,28.63
2023-02-14T11:43:14.311Z,28.27
2023-02-14T11:45:48.202Z,33.58
2023-02-14T11:48:37.595Z,34.53
2023-02-14T11:51:14.094Z,27.77
2023-02-14T11:53:51.349Z,29.10
2023-02-14T11:56:23.166Z,34.10
2023-02-14T11:59:04.630Z,30.42
2023-02-14T12:01:35.521Z,36.97
2023-02-14T12:04:15.535Z,30.55
2023-02-14T12:06:44.482Z,35.15
2023-02-14T12:09:24.763Z,29.85
2023-02-14T12:12:19.650Z,32.28
2023-02-14T12:14:48.376Z,30.52
2023-02-14T12:17:38.994Z,29.15
2023-02-14T12:20:17.803Z,34.67
2023-02-14T12:23:17.964Z,30.30
2023-02-14T12:26:27.737Z,29.88
2023-02-14T12:29:08.504Z,29.77
2023-02-14T12:31:35.691Z,33.22
2023-02-14T12:34:04.812Z,32.75
2023-02-14T12:36:48.228Z,27.15
2023-02-14T12:39:51.454Z,29.02
2023-02-14T12:42:49.020Z,31.55
2023-02-14T12:45:43.525Z,29.02
2023-02-14T12:48:37.947Z,23.67
2023-02-14T12:51:37.434Z,28.15
2023-02-14T12:54:34.923Z,28.00
2023-02-14T12:57:31.794Z,29.45
2023-02-14T13:02:56.552Z,25.95
2023-02-14T13:05:29.726Z,28.10
2023-02-14T13:08:31.842Z,29.83
2023-02-14T13:11:07.753Z,31.48
2023-02-14T13:14:06.418Z,27.95
2023-02-14T13:16:50.573Z,26.88
2023-02-14T13:19:41.510Z,29.38
2023-02-14T13:22:16.144Z,25.08
2023-02-14T13:24:47.423Z,29.65
2023-02-14T13:27:22.949Z,29.15
2023-02-14T13:29:59.916Z,31.17
2023-02-14T13:32:35.942Z,31.33
2023-02-14T13:35:04.513Z,31.48
2023-02-14T13:37:33.336Z,27.45
2023-02-14T13:40:17.438Z,29.98
2023-02-14T13:42:47.890Z,29.40
2023-02-14T13:45:30.437Z,31.05
2023-02-14T13:48:22.944Z,29.60
2023-02-14T13:50:56.234Z,28.38
2023-02-14T13:53:49.034Z,28.45
2023-02-14T13:56:16.088Z,26.00
2023-02-14T13:59:00.463Z,30.10
2023-02-14T14:01:50.113Z,29.17
2023-02-14T14:04:30.305Z,29.05
2023-02-14T14:07:03.494Z,31.23
2023-02-14T14:09:42.673Z,29.65
2023-02-14T14:12:28.414Z,28.48
2023-02-14T14:15:08.318Z,28.77
2023-02-14T14:17:50.619Z,31.13
2023-02-14T14:20:20.461Z,28.33
2023-02-14T14:23:01.332Z,28.35
2023-02-14T14:25:42.897Z,25.92
2023-02-14T14:28:24.025Z,29.85
2023-02-14T14:30:52.047Z,27.08
2023-02-14T14:33:31.758Z,31.55
2023-02-14T14:36:08.397Z,36.00
2023-02-14T14:38:51.039Z,28.92
2023-02-14T14:41:18.486Z,32.35
2023-02-14T14:43:47.262Z,40.35
2023-02-14T14:46:16.378Z,27.83
2023-02-14T14:48:51.561Z,30.50
2023-02-14T14:51:34.890Z,29.45
2023-02-14T14:54:13.626Z,27.85
2023-02-14T14:57:01.902Z,28.67
2023-02-14T14:59:35.674Z,25.60
2023-02-14T15:02:07.565Z,32.08
2023-02-14T15:04:36.031Z,29.83
2023-02-14T15:07:36.488Z,29.15
2023-02-14T15:10:20.559Z,30.25
2023-02-14T15:13:06.580Z,32.03
2023-02-14T15:15:33.842Z,31.42
2023-02-14T15:18:08.258Z,27.58
2023-02-14T15:20:36.953Z,31.90
2023-02-14T15:23:05.070Z,34.33
2023-02-14T15:25:36.416Z,31.48
2023-02-14T15:28:03.839Z,31.85
2023-02-14T15:30:38.019Z,31.92
2023-02-14T15:33:07.302Z,33.30
2023-02-14T15:35:44.141Z,34.38
2023-02-14T15:38:13.990Z,29.35
2023-02-14T15:40:43.744Z,30.73
2023-02-14T15:43:22.130Z,29.63
2023-02-14T15:45:57.483Z,33.67
2023-02-14T15:48:34.229Z,30.77
2023-02-14T15:51:05.183Z,32.88
2023-02-14T15:53:41.071Z,30.20
2023-02-14T15:56:27.603Z,29.33
2023-02-14T15:59:28.232Z,31.80
2023-02-14T16:02:22.192Z,33.42
2023-02-14T16:04:50.157Z,39.85
2023-02-14T16:07:28.474Z,30.58
2023-02-14T16:10:40.336Z,32.47
2023-02-14T16:13:21.045Z,33.90
2023-02-14T16:16:05.225Z,35.90
2023-02-14T16:18:48.635Z,32.30
2023-02-14T16:21:28.304Z,30.60
2023-02-14T16:24:19.373Z,35.45
2023-02-14T16:26:47.174Z,30.38
2023-02-14T16:29:22.740Z,30.95
2023-02-14T16:32:14.766Z,33.13
2023-02-14T16:34:47.609Z,31.48
2023-02-14T16:37:33.327Z,38.30
2023-02-14T16:40:03.332Z,32.53
2023-02-14T16:42:32.820Z,30.95
2023-02-14T16:45:00.395Z,33.85
2023-02-14T16:47:28.486Z,32.80
2023-02-14T16:49:56.031Z,32.53
2023-02-14T16:52:28.764Z,33.80
2023-02-14T16:54:59.028Z,42.47
2023-02-14T16:57:33.157Z,34.83
2023-02-14T17:00:06.987Z,36.88
2023-02-14T17:02:35.846Z,30.83
2023-02-14T17:05:03.542Z,32.28
2023-02-14T17:07:34.796Z,33.90
2023-02-14T17:10:13.407Z,33.75
2023-02-14T17:12:44.469Z,33.15
2023-02-14T17:15:20.668Z,34.83
2023-02-14T17:17:52.765Z,32.17
2023-02-14T17:20:22.381Z,35.30
2023-02-14T17:22:50.505Z,34.95
2023-02-14T17:25:18.840Z,32.78
2023-02-14T17:27:46.887Z,32.95
2023-02-14T17:30:18.221Z,37.25
2023-02-14T17:32:46.845Z,36.42
2023-02-14T17:35:16.862Z,42.60
2023-02-14T17:37:45.247Z,41.28
2023-02-14T17:40:15.410Z,35.45
2023-02-14T17:42:44.466Z,39.03
2023-02-14T17:45:14.495Z,35.67
2023-02-14T17:47:43.590Z,31.70
2023-02-14T17:50:13.626Z,37.38
2023-02-14T17:52:42.804Z,36.97
2023-02-14T17:55:11.356Z,35.15
2023-02-14T17:57:41.038Z,39.75
2023-02-14T18:00:12.055Z,35.50
2023-02-14T18:02:42.889Z,33.20
2023-02-14T18:05:11.120Z,33.22
2023-02-14T18:07:40.070Z,34.78
2023-02-14T18:10:09.846Z,39.92
2023-02-14T18:12:38.138Z,32.30
2023-02-14T18:15:06.817Z,39.00
2023-02-14T18:17:35.390Z,36.60
2023-02-14T18:20:05.772Z,41.55
2023-02-14T18:22:37.626Z,36.75
2023-02-14T18:25:07.416Z,36.58
2023-02-14T18:27:35.424Z,35.42
2023-02-14T18:30:03.303Z,37.50
2023-02-14T18:32:33.543Z,33.45
2023-02-14T18:35:02.077Z,37.95
2023-02-14T18:37:30.365Z,35.88
2023-02-14T18:40:02.207Z,39.53
2023-02-14T18:42:30.788Z,37.15
2023-02-14T18:44:58.870Z,37.55
2023-02-14T18:47:37.606Z,37.13
2023-02-14T18:50:09.636Z,41.90
2023-02-14T18:52:42.176Z,37.83
2023-02-14T18:55:11.099Z,38.95
2023-02-14T18:57:40.124Z,43.90
2023-02-14T19:00:12.727Z,37.53
2023-02-14T19:02:41.496Z,39.10
2023-02-14T19:05:11.316Z,37.83
2023-02-14T19:07:40.208Z,43.85
2023-02-14T19:10:13.798Z,37.83
2023-02-14T19:12:41.914Z,37.13
2023-02-14T19:15:10.483Z,36.80
2023-02-14T19:17:39.770Z,38.08
2023-02-14T19:20:13.188Z,36.25
2023-02-14T19:22:45.671Z,38.00
2023-02-14T19:25:14.362Z,37.38
2023-02-14T19:27:43.617Z,36.30
2023-02-14T19:30:12.435Z,42.47
2023-02-14T19:32:40.942Z,37.88
2023-02-14T19:35:09.168Z,37.85
2023-02-14T19:37:37.894Z,33.47
2023-02-14T19:40:07.838Z,38.95
2023-02-14T19:42:38.190Z,35.75
2023-02-14T19:45:08.366Z,39.30
2023-02-14T19:47:46.754Z,38.05
2023-02-14T19:50:16.812Z,37.85
2023-02-14T19:52:46.423Z,37.53
2023-02-14T19:55:24.749Z,38.95
2023-02-14T19:57:53.481Z,35.80
2023-02-14T20:00:21.907Z,37.20
2023-02-14T20:02:53.694Z,37.30
2023-02-14T20:05:23.541Z,38.38
2023-02-14T20:07:58.196Z,37.25
2023-02-14T20:10:27.910Z,33.83
2023-02-14T20:12:58.980Z,38.60
2023-02-14T20:15:33.058Z,40.65
2023-02-14T20:18:02.871Z,41.35
2023-02-14T20:20:54.641Z,38.97
2023-02-14T20:23:27.597Z,37.10
2023-02-14T20:25:58.152Z,36.78
2023-02-14T20:28:28.270Z,40.47
2023-02-14T20:30:56.891Z,35.83
2023-02-14T20:33:26.069Z,42.42
2023-02-14T20:35:54.875Z,43.15
2023-02-14T20:38:23.733Z,36.45
2023-02-14T20:41:02.689Z,36.67
2023-02-14T20:43:36.564Z,36.83
2023-02-14T20:46:07.869Z,37.30
2023-02-14T20:48:37.009Z,38.65
2023-02-14T20:51:19.243Z,40.60
2023-02-14T20:53:49.312Z,41.63
2023-02-14T20:56:17.914Z,39.55
2023-02-14T20:58:46.271Z,36.47
2023-02-14T21:01:18.320Z,41.28
2023-02-14T21:03:52.469Z,33.35
2023-02-14T21:06:28.970Z,39.60
2023-02-14T21:09:01.509Z,36.63
2023-02-14T21:11:29.790Z,40.63
2023-02-14T21:14:03.175Z,39.25
2023-02-14T21:16:34.834Z,36.90
2023-02-14T21:19:04.776Z,39.95
2023-02-14T21:21:36.751Z,38.75
2023-02-14T21:24:16.212Z,40.95
2023-02-14T21:26:45.331Z,35.63
2023-02-14T21:29:14.855Z,35.10
2023-02-14T21:31:44.186Z,39.90
2023-02-14T21:34:14.589Z,36.97
2023-02-14T21:36:46.324Z,34.45
2023-02-14T21:39:15.181Z,35.85
2023-02-14T21:41:43.781Z,38.70
2023-02-14T21:44:32.932Z,34.25
2023-02-14T21:47:08.778Z,38.53
2023-02-14T21:49:58.862Z,40.60
2023-02-14T21:52:27.995Z,36.35
2023-02-14T21:55:00.166Z,33.38
2023-02-14T21:57:29.691Z,37.05
2023-02-14T21:59:58.612Z,36.15
2023-02-14T22:02:26.211Z,40.80
2023-02-14T22:04:54.077Z,38.33
2023-02-14T22:07:21.974Z,35.83
2023-02-14T22:09:52.628Z,38.03
2023-02-14T22:12:20.109Z,34.72
2023-02-14T22:14:47.868Z,39.03
2023-02-14T22:17:15.316Z,39.22
2023-02-14T22:19:42.639Z,43.83
2023-02-14T22:22:12.585Z,35.85
2023-02-14T22:24:39.839Z,36.25
2023-02-14T22:27:07.053Z,32.27
2023-02-14T22:29:34.247Z,35.72
2023-02-14T22:32:01.625Z,36.10
2023-02-14T22:34:32.479Z,34.13
2023-02-14T22:36:59.853Z,33.10
2023-02-14T22:39:30.529Z,34.72
2023-02-14T22:41:58.278Z,34.93
2023-02-14T22:44:25.542Z,37.00
2023-02-14T22:46:52.754Z,36.42
2023-02-14T22:49:19.889Z,35.22
2023-02-14T22:51:47.000Z,39.58
2023-02-14T22:54:16.052Z,39.47
2023-02-14T22:56:47.613Z,39.03
2023-02-14T22:59:22.816Z,37.43
2023-02-14T23:01:53.884Z,41.25
2023-02-14T23:04:24.557Z,35.23
2023-02-14T23:06:53.232Z,39.77
2023-02-14T23:09:20.726Z,40.00
2023-02-14T23:11:48.504Z,40.83
2023-02-14T23:14:37.033Z,37.80
2023-02-14T23:17:05.565Z,36.60
2023-02-14T23:19:54.080Z,42.65
2023-02-14T23:22:40.055Z,40.57
2023-02-14T23:25:11.231Z,42.10
2023-02-14T23:27:45.534Z,37.73
2023-02-14T23:30:16.994Z,39.72
2023-02-14T23:32:45.223Z,37.42
2023-02-14T23:35:13.172Z,39.28
2023-02-14T23:37:40.990Z,38.17
2023-02-14T23:40:09.897Z,38.73
2023-02-14T23:42:37.507Z,39.07
2023-02-14T23:45:23.600Z,39.97
2023-02-14T23:47:51.237Z,40.50
2023-02-14T23:50:18.648Z,40.42
2023-02-14T23:52:49.201Z,37.00
2023-02-14T23:55:16.500Z,37.03
2023-02-14T23:57:43.874Z,38.83
